Details From GVNP - PRAIA INTERNATIONAL
To GOOY - Dakar Leopold Sedar Senghor Intl
Flight Number -
Tags generated
Created
Modified
Stats Distance 504 nm / 933 km
Max Altitude 25,000 ft / 7,620 m
Waypoints 7
Social Downloads 6
Likes 0
Share

Download

Looking for another format? Having issues loading an existing format? Contact us
Advertisement - Login to hide

Notes

Basic altitude profile: - Ascent Rate: 1700ft/min - Ascent Speed: 300kts - Cruise Altitude: 25000ft - Cruise Speed: 420kts - Descent Rate: 1200ft/min - Descent Speed: 200kts

Route

GVNP ITSOS A602 CVS UR976 NARAT GOOY

ID Type Via Altitude (ft/m) Position (lat/lon) Dist (leg/tot) Name
O GVNP APT - 0 / 0 14.93258 / -23.48919 - / 0 nm PRAIA INTERNATIONAL
ITSOS FIX - 25,000 / 7,620 16.12167 / -22.13333 106 / 106 nm
CVS VOR A602 (AWY-LO) 18,500 / 5,639 16.73677 / -22.95105 59 / 165 nm SAL VOR-DME
UGAMA FIX UR976 (AWY-HI) 25,000 / 7,620 16.28667 / -21.67000 78 / 244 nm
LUMPO FIX UR976 (AWY-HI) 25,000 / 7,620 15.68000 / -20.00139 102 / 347 nm
NARAT FIX UR976 (AWY-HI) 23,500 / 7,163 14.94333 / -18.00000 124 / 471 nm
O GOOY APT - 0 / 0 14.73971 / -17.49023 32 / 503 nm Dakar Leopold Sedar Senghor Intl

Altitude Profile

Advertisement - Login to hide

Weather


0- 5 10 15 20 25 30 35+ Temperature / °C

Clouds and Precipitation
Forecast for 2021-03-22 12:00 UTC. Updated a month ago

Ground ~20,000 ft ~40,000 ft Winds

GVNP

Details ICAO GVNP (RAI)
Name Praia Nelson Mandela Intl
Region Cape Verde
Timezone Atlantic/Cape_Verde (UTC-1.0)
Stats Elevation 324 ft / 99 m (AMSL)
Location 14.941100° -23.484700°
Runways 1
Magnetic Variation 9.487° W

METAR

GVNP 202200Z 02015KT CAVOK 21/17 Q1015 NOSIG

Decode

TAF

TAF GVNP 201700Z 2018/2124 01018KT 9999 FEW018

Decode

Departure Runways

ID Width Length Bearing (true/mag) Surface Threshold Overrun Markings Lighting
03 148 ft / 45 m 6,896 ft / 2,102 m 21.85° / 31.34° ASPHALT 650 ft / 198 m 0 ft / 0 m PREC-APP CENTERLINE EDGE THRESHOLD MALS
21 148 ft / 45 m 6,896 ft / 2,102 m 201.85° / 211.34° ASPHALT 0 ft / 0 m 0 ft / 0 m PREC-APP CENTERLINE EDGE THRESHOLD SALS

GOOY

Details ICAO GOOY (DKR)
Name Dakar - Leopold Sedar Senghor Intl
Region Senegal
Timezone Africa/Dakar (UTC+0.0)
Stats Elevation 84 ft / 26 m (AMSL)
Location 14.740100° -17.490400°
Runways 2
Magnetic Variation 6.968° W

METAR

GOOY 202200Z 34008KT 8000 FEW013 20/19 Q1012

Decode

TAF

TAF GOOY 201700Z 2018/2124 33010KT CAVOK= TAF GOBD 201700Z 2018/2124 35014KT CAVOK

Decode

Destination Runways

ID Width Length Bearing (true/mag) Surface Threshold Overrun Markings Lighting
03 98 ft / 30 m 4,916 ft / 1,498 m 22.33° / 29.30° ASPHALT 0 ft / 0 m 98 ft / 30 m APP
18 148 ft / 45 m 11,483 ft / 3,500 m 172.61° / 179.58° ASPHALT 525 ft / 160 m 220 ft / 67 m APP EDGE THRESHOLD
21 98 ft / 30 m 4,916 ft / 1,498 m 202.33° / 209.30° ASPHALT 0 ft / 0 m 1,591 ft / 485 m APP
36 148 ft / 45 m 11,483 ft / 3,500 m 352.61° / 359.58° ASPHALT 0 ft / 0 m 213 ft / 65 m PREC-APP EDGE THRESHOLD ALSF-I

Approach Navaids

Runway Type Ident Frequency Range Bearing (true/mag) Slope Elevation
36 MM MM - - 352.57° / 359.54 ° - 144 ft / 44 m (AMSL)
36 GS YF 110.30 MHz 10 nm / 19 km 353.14° / 0.11 ° 3.01° 73 ft / 22 m (AMSL)
36 DME YF 110.30 MHz 18 nm / 33 km - - 73 ft / 22 m (AMSL)
36 LOC-ILS YF 110.30 MHz 18 nm / 33 km 352.33° / 359.29 ° - 65 ft / 20 m (AMSL)

Popular Alternatives